LIBR Airport Information

Runway Information
Runway 05 Length 6132 ft width 148 ft
Elevation 46 ft Threshold 0 ft Heading 53
Runway 23 Length 6132 ft Width 148 ft
Elevation 13 ft Threshold 230 ft Heading 233
Runway 13 Length 8307 ft width 148 ft
Elevation 29 ft Threshold 0 ft Heading 137
Runway 31 Length 8307 ft Width 148 ft
Elevation 26 ft Threshold 0 ft Heading 317
Airport Frequencies
Type APP Name BRINDISI A Frequency 36.365 MHZ
Type APP Name BRINDISI A Frequency 118.4 MHZ
Type GND Name GND Frequency 31.355 MHZ
Type ILS RWY 32 Name Frequency 109.5 MHZ
Type TWR Name BRINDISI T Frequency 118.1 MHZ
Airport Navaids
Type VORTAC Name Brindisi Frequency 113200 KHZ
Type NDB Name Brindisi Frequency 364 KHZ
Airport Weather Information & NOTAM
ADDS - METARS form results

(2107 UTC 12 December 2018)
Data provider http://aviationweather.gov/metar/data/
 
METAR text: LIBR 122050Z 20003KT CAVOK 06/03 Q1019
Conditions at: LIBR (BRINDISI/CASALE , IT) observed 2050 UTC 12 December 2018
Temperature: 6.0°C (43°F)
Dewpoint: 3.0°C (37°F) [RH = 81%]
Pressure (altimeter): 30.09 inches Hg (1019.0 mb)
Winds: from the SSW (200 degrees) at 3 MPH (3 knots; 1.5 m/s)
Visibility: 6 or more miles (10+ km)
Ceiling: ceiling and visibility are OK
Clouds: unknown
Weather: no significant weather observed at this time

METAR text: LIBR 122020Z 20005KT CAVOK 07/03 Q1019
Conditions at: LIBR (BRINDISI/CASALE , IT) observed 2020 UTC 12 December 2018
Temperature: 7.0°C (45°F)
Dewpoint: 3.0°C (37°F) [RH = 76%]
Pressure (altimeter): 30.09 inches Hg (1019.0 mb)
Winds: from the SSW (200 degrees) at 6 MPH (5 knots; 2.6 m/s)
Visibility: 6 or more miles (10+ km)
Ceiling: ceiling and visibility are OK
Clouds: unknown
Weather: no significant weather observed at this time

Forecast for: LIBR (BRINDISI/CASALE , IT)
Text: TAF LIBR 121700Z 1218/1318 VRB05KT 9999 SCT030
Forecast period: 1800 UTC 12 December 2018 to 0400 UTC 13 December 2018
Forecast type: FROM: standard forecast or significant change
Winds: variable direction winds at 6 MPH (5 knots; 2.6 m/s)
Visibility: 6 or more miles 10+ km)
Ceiling: at least 12,000 feet AGL
Clouds: scattered clouds at 3000 feet AGL
Weather: no significant weather forecast for this period
Text: TEMPO 1302/1308 DZ
Forecast period: 0200 to 0800 UTC 13 December 2018
Forecast type: TEMPORARY: The following changes expected for less than half the time period
Visibility: missing
Ceiling: unknown
Clouds: missing
Weather: DZ  (moderate drizzle)
Text: BECMG 1304/1306 18012KT
Forecast period: 0400 to 1800 UTC 13 December 2018
Forecast type: BECOMING: Conditions expected to become as follows by 0600 UTC 13 December 2018
Winds: from the S (180 degrees) at 14 MPH (12 knots; 6.2 m/s)
Visibility: 6 or more miles 10+ km)
Ceiling: at least 12,000 feet AGL
Clouds: scattered clouds at 3000 feet AGL
Weather: no significant weather forecast for this period